createdAt,value
2018-08-10T00:00:26.910Z,97690.00
2018-08-10T00:00:58.535Z,97693.94
2018-08-10T00:01:30.119Z,97693.50
2018-08-10T00:02:01.713Z,97696.52
2018-08-10T00:02:33.309Z,97693.16
2018-08-10T00:03:04.889Z,97689.77
2018-08-10T00:03:36.475Z,97696.55
2018-08-10T00:04:08.059Z,97693.47
2018-08-10T00:04:39.661Z,97705.83
2018-08-10T00:05:11.247Z,97702.08
2018-08-10T00:05:42.901Z,97705.11
2018-08-10T00:06:14.487Z,97709.80
2018-08-10T00:06:46.071Z,97703.03
2018-08-10T00:07:17.655Z,97703.62
2018-08-10T00:07:49.243Z,97703.29
2018-08-10T00:08:20.834Z,97705.89
2018-08-10T00:08:52.466Z,97709.78
2018-08-10T00:09:24.048Z,97713.19
2018-08-10T00:09:55.641Z,97710.17
2018-08-10T00:10:27.241Z,97713.50
2018-08-10T00:10:58.881Z,97710.92
2018-08-10T00:11:30.456Z,97712.38
2018-08-10T00:12:02.088Z,97714.48
2018-08-10T00:12:33.675Z,97719.20
2018-08-10T00:13:05.259Z,97720.58
2018-08-10T00:13:36.829Z,97721.03
2018-08-10T00:14:08.429Z,97724.05
2018-08-10T00:14:40.030Z,97726.76
2018-08-10T00:15:11.613Z,97726.78
2018-08-10T00:15:43.233Z,97734.48
2018-08-10T00:16:14.855Z,97723.23
2018-08-10T00:16:46.440Z,97720.19
2018-08-10T00:17:18.026Z,97729.95
2018-08-10T00:17:49.614Z,97723.48
2018-08-10T00:18:21.204Z,97724.77
2018-08-10T00:18:52.791Z,97717.92
2018-08-10T00:19:24.385Z,97723.06
2018-08-10T00:19:55.972Z,97727.46
2018-08-10T00:20:27.569Z,97721.45
2018-08-10T00:20:59.214Z,97720.63
2018-08-10T00:21:30.799Z,97716.46
2018-08-10T00:22:02.490Z,97724.27
2018-08-10T00:22:34.079Z,97717.11
2018-08-10T00:23:05.678Z,97721.58
2018-08-10T00:23:37.264Z,97723.40
2018-08-10T00:24:08.851Z,97725.08
2018-08-10T00:24:40.449Z,97727.44
2018-08-10T00:25:12.035Z,97726.87
2018-08-10T00:25:43.619Z,97728.09
2018-08-10T00:26:15.243Z,97734.25
2018-08-10T00:26:46.828Z,97729.79
2018-08-10T00:27:18.421Z,97731.84
2018-08-10T00:27:50.007Z,97736.28
2018-08-10T00:28:21.592Z,97734.81
2018-08-10T00:28:53.197Z,97739.82
2018-08-10T00:29:24.783Z,97735.54
2018-08-10T00:29:56.357Z,97738.42
2018-08-10T00:30:27.947Z,97742.73
2018-08-10T00:30:59.535Z,97737.58
2018-08-10T00:31:31.174Z,97736.30
2018-08-10T00:32:02.750Z,97740.62
2018-08-10T00:32:34.346Z,97741.02
2018-08-10T00:33:05.917Z,97748.88
2018-08-10T00:33:37.490Z,97745.10
2018-08-10T00:34:09.075Z,97750.70
2018-08-10T00:34:40.710Z,97746.75
2018-08-10T00:35:12.304Z,97746.75
2018-08-10T00:35:43.891Z,97747.70
2018-08-10T00:36:15.485Z,97743.31
2018-08-10T00:36:47.085Z,97744.58
2018-08-10T00:37:18.671Z,97744.99
2018-08-10T00:37:50.255Z,97746.73
2018-08-10T00:38:21.849Z,97741.55
2018-08-10T00:38:53.440Z,97748.88
2018-08-10T00:39:25.015Z,97753.24
2018-08-10T00:39:56.634Z,97749.75
2018-08-10T00:40:28.219Z,97755.34
2018-08-10T00:40:59.813Z,97760.77
2018-08-10T00:41:31.457Z,97759.91
2018-08-10T00:42:03.043Z,97762.19
2018-08-10T00:42:34.628Z,97760.17
2018-08-10T00:43:06.215Z,97762.39
2018-08-10T00:43:37.792Z,97759.42
2018-08-10T00:44:09.395Z,97761.57
2018-08-10T00:44:40.983Z,97758.21
2018-08-10T00:45:12.580Z,97758.80
2018-08-10T00:45:44.281Z,97760.08
2018-08-10T00:46:15.882Z,97763.31
2018-08-10T00:46:47.518Z,97761.95
2018-08-10T00:47:19.107Z,97760.55
2018-08-10T00:47:50.776Z,97769.09
2018-08-10T00:48:22.367Z,97762.48
2018-08-10T00:48:53.956Z,97770.53
2018-08-10T00:49:25.539Z,97768.33
2018-08-10T00:49:57.123Z,97768.20
2018-08-10T00:50:28.707Z,97766.41
2018-08-10T00:51:00.302Z,97765.23
2018-08-10T00:51:31.912Z,97768.58
2018-08-10T00:52:03.510Z,97768.20
2018-08-10T00:52:35.109Z,97763.91
2018-08-10T00:53:06.770Z,97770.80
2018-08-10T00:53:38.369Z,97763.44
2018-08-10T00:54:09.941Z,97767.69
2018-08-10T00:54:41.533Z,97764.72
2018-08-10T00:55:13.109Z,97772.78
2018-08-10T00:55:44.696Z,97759.13
2018-08-10T00:56:16.270Z,97768.64
2018-08-10T00:56:47.855Z,97770.38
2018-08-10T00:57:19.430Z,97767.41
2018-08-10T00:57:51.034Z,97769.50
2018-08-10T00:58:22.677Z,97764.34
2018-08-10T00:58:54.332Z,97775.44
2018-08-10T00:59:25.927Z,97763.91
2018-08-10T00:59:57.501Z,97770.93
2018-08-10T01:00:29.087Z,97776.52
2018-08-10T01:01:00.685Z,97774.37
2018-08-10T01:01:32.270Z,97775.63
2018-08-10T01:02:03.865Z,97772.52
2018-08-10T01:02:35.451Z,97773.84
2018-08-10T01:03:07.041Z,97774.67
2018-08-10T01:03:38.689Z,97772.84
2018-08-10T01:04:10.275Z,97775.86
2018-08-10T01:04:41.873Z,97776.78
2018-08-10T01:05:13.473Z,97776.36
2018-08-10T01:05:45.079Z,97778.09
2018-08-10T01:06:16.670Z,97774.28
2018-08-10T01:06:48.241Z,97775.52
2018-08-10T01:07:19.823Z,97775.83
2018-08-10T01:07:51.414Z,97777.45
2018-08-10T01:08:23.004Z,97784.17
2018-08-10T01:08:54.653Z,97781.57
2018-08-10T01:09:26.237Z,97782.00
2018-08-10T01:09:57.833Z,97780.42
2018-08-10T01:10:29.419Z,97785.98
2018-08-10T01:11:01.002Z,97784.36
2018-08-10T01:11:32.602Z,97777.14
2018-08-10T01:12:04.201Z,97784.55
2018-08-10T01:12:35.809Z,97790.56
2018-08-10T01:13:07.421Z,97790.14
2018-08-10T01:13:39.045Z,97783.81
2018-08-10T01:14:10.637Z,97786.62
2018-08-10T01:14:42.209Z,97789.39
2018-08-10T01:15:13.795Z,97792.72
2018-08-10T01:15:45.380Z,97792.53
2018-08-10T01:16:16.977Z,97793.69
2018-08-10T01:16:48.554Z,97792.34
2018-08-10T01:17:20.139Z,97787.67
2018-08-10T01:17:51.723Z,97791.62
2018-08-10T01:18:23.307Z,97786.36
2018-08-10T01:18:54.891Z,97790.98
2018-08-10T01:19:26.598Z,97788.55
2018-08-10T01:19:58.135Z,97795.84
2018-08-10T01:20:29.715Z,97793.74
2018-08-10T01:21:01.308Z,97788.20
2018-08-10T01:21:32.903Z,97797.66
2018-08-10T01:22:04.491Z,97791.20
2018-08-10T01:22:36.093Z,97791.64
2018-08-10T01:23:07.693Z,97792.20
2018-08-10T01:23:39.279Z,97791.75
2018-08-10T01:24:10.926Z,97790.13
2018-08-10T01:24:42.511Z,97793.90
2018-08-10T01:25:14.105Z,97791.96
2018-08-10T01:25:45.682Z,97793.70
2018-08-10T01:26:17.267Z,97791.88
2018-08-10T01:26:48.862Z,97794.43
2018-08-10T01:27:20.447Z,97790.36
2018-08-10T01:27:52.083Z,97797.67
2018-08-10T01:28:23.747Z,97792.48
2018-08-10T01:28:55.412Z,97797.60
2018-08-10T01:29:26.913Z,97789.48
2018-08-10T01:29:58.499Z,97803.03
2018-08-10T01:30:30.083Z,97802.83
2018-08-10T01:31:01.668Z,97801.88
2018-08-10T01:31:33.243Z,97799.73
2018-08-10T01:32:04.817Z,97805.31
2018-08-10T01:32:36.417Z,97794.88
2018-08-10T01:33:07.996Z,97800.33
2018-08-10T01:33:39.595Z,97802.82
2018-08-10T01:34:11.193Z,97794.01
2018-08-10T01:34:42.790Z,97800.33
2018-08-10T01:35:14.376Z,97800.80
2018-08-10T01:35:45.969Z,97800.75
2018-08-10T01:36:17.564Z,97802.88
2018-08-10T01:36:49.165Z,97802.38
2018-08-10T01:37:20.749Z,97802.88
2018-08-10T01:37:52.332Z,97805.23
2018-08-10T01:38:23.945Z,97805.95
2018-08-10T01:38:55.545Z,97809.55
2018-08-10T01:39:27.181Z,97809.23
2018-08-10T01:39:58.767Z,97810.55
2018-08-10T01:40:30.343Z,97810.94
2018-08-10T01:41:01.937Z,97812.67
2018-08-10T01:41:33.515Z,97813.83
2018-08-10T01:42:05.099Z,97816.53
2018-08-10T01:42:36.683Z,97817.61
2018-08-10T01:43:08.315Z,97814.48
2018-08-10T01:43:39.903Z,97821.04
2018-08-10T01:44:11.492Z,97816.72
2018-08-10T01:44:43.069Z,97816.21
2018-08-10T01:45:14.655Z,97818.58
2018-08-10T01:45:46.245Z,97815.58
2018-08-10T01:46:17.844Z,97815.98
2018-08-10T01:46:49.431Z,97820.26
2018-08-10T01:47:21.016Z,97813.56
2018-08-10T01:47:52.605Z,97818.31
2018-08-10T01:48:24.239Z,97816.70
2018-08-10T01:48:55.824Z,97813.22
2018-08-10T01:49:27.393Z,97817.92
2018-08-10T01:49:58.989Z,97824.19
2018-08-10T01:50:30.575Z,97819.52
2018-08-10T01:51:02.177Z,97819.47
2018-08-10T01:51:33.772Z,97824.25
2018-08-10T01:52:05.363Z,97818.16
2018-08-10T01:52:36.946Z,97820.70
2018-08-10T01:53:08.541Z,97821.98
2018-08-10T01:53:40.175Z,97824.16
2018-08-10T01:54:11.756Z,97818.68
2018-08-10T01:54:43.343Z,97814.42
2018-08-10T01:55:14.946Z,97818.37
2018-08-10T01:55:46.546Z,97811.98
2018-08-10T01:56:18.146Z,97817.66
2018-08-10T01:56:49.751Z,97816.37
2018-08-10T01:57:21.339Z,97813.60
2018-08-10T01:57:52.937Z,97811.95
2018-08-10T01:58:24.537Z,97816.17
2018-08-10T01:58:56.163Z,97813.11
2018-08-10T01:59:27.759Z,97819.86
2018-08-10T01:59:59.347Z,97815.16
2018-08-10T02:00:30.935Z,97811.32
2018-08-10T02:01:02.522Z,97819.80
2018-08-10T02:01:34.111Z,97815.59
2018-08-10T02:02:05.707Z,97818.41
2018-08-10T02:02:37.291Z,97816.27
2018-08-10T02:03:08.933Z,97822.75
2018-08-10T02:03:40.520Z,97820.63
2018-08-10T02:04:12.115Z,97818.31
2018-08-10T02:04:43.699Z,97824.74
2018-08-10T02:05:15.286Z,97823.66
2018-08-10T02:05:46.871Z,97827.09
2018-08-10T02:06:18.445Z,97829.63
2018-08-10T02:06:50.027Z,97829.65
2018-08-10T02:07:21.601Z,97833.16
2018-08-10T02:07:53.197Z,97836.42
2018-08-10T02:08:24.838Z,97831.80
2018-08-10T02:08:56.439Z,97573.70
2018-08-10T02:09:28.027Z,97832.98
2018-08-10T02:09:59.610Z,97837.97
2018-08-10T02:10:31.197Z,97835.63
2018-08-10T02:11:02.797Z,97837.63
2018-08-10T02:11:34.377Z,97835.92
2018-08-10T02:12:05.977Z,97836.22
2018-08-10T02:12:37.563Z,97837.06
2018-08-10T02:13:09.191Z,97836.19
2018-08-10T02:13:40.775Z,97836.61
2018-08-10T02:14:12.390Z,97840.86
2018-08-10T02:14:43.985Z,97840.41
2018-08-10T02:15:15.568Z,97842.98
2018-08-10T02:15:47.145Z,97840.39
2018-08-10T02:16:18.741Z,97841.67
2018-08-10T02:16:50.313Z,97841.65
2018-08-10T02:17:21.909Z,97847.48
2018-08-10T02:17:53.498Z,97842.93
2018-08-10T02:18:25.123Z,97843.48
2018-08-10T02:18:56.704Z,97844.77
2018-08-10T02:19:28.302Z,97844.82
2018-08-10T02:19:59.888Z,97845.16
2018-08-10T02:20:31.467Z,97847.27
2018-08-10T02:21:03.066Z,97841.15
2018-08-10T02:21:34.669Z,97844.95
2018-08-10T02:22:06.305Z,97843.67
2018-08-10T02:22:37.891Z,97845.38
2018-08-10T02:23:09.475Z,97845.58
2018-08-10T02:23:41.059Z,97846.88
2018-08-10T02:24:12.697Z,97846.84
2018-08-10T02:24:44.351Z,97847.27
2018-08-10T02:25:15.896Z,97850.18
2018-08-10T02:25:47.497Z,97854.88
2018-08-10T02:26:19.099Z,97853.53
2018-08-10T02:26:50.697Z,97856.50
2018-08-10T02:27:22.274Z,97853.15
2018-08-10T02:27:53.874Z,97857.70
2018-08-10T02:28:25.453Z,97857.47
2018-08-10T02:28:57.039Z,97857.09
2018-08-10T02:29:28.624Z,97852.37
2018-08-10T02:30:00.208Z,97861.27
2018-08-10T02:30:31.841Z,97859.55
2018-08-10T02:31:03.442Z,97857.86
2018-08-10T02:31:35.031Z,97859.13
2018-08-10T02:32:06.616Z,97859.52
2018-08-10T02:32:38.214Z,97863.30
2018-08-10T02:33:09.803Z,97856.50
2018-08-10T02:33:41.434Z,97862.77
2018-08-10T02:34:13.023Z,97860.58
2018-08-10T02:34:44.607Z,97859.65
2018-08-10T02:35:16.201Z,97860.55
2018-08-10T02:35:47.797Z,97856.59
2018-08-10T02:36:19.384Z,97859.08
2018-08-10T02:36:50.967Z,97864.17
2018-08-10T02:37:22.570Z,97860.36
2018-08-10T02:37:54.167Z,97855.74
2018-08-10T02:38:25.751Z,97864.02
2018-08-10T02:38:57.380Z,97861.48
2018-08-10T02:39:28.971Z,97865.97
2018-08-10T02:40:00.573Z,97862.61
2018-08-10T02:40:32.163Z,97860.80
2018-08-10T02:41:03.741Z,97864.24
2018-08-10T02:41:35.314Z,97861.04
2018-08-10T02:42:06.913Z,97866.24
2018-08-10T02:42:38.514Z,97869.20
2018-08-10T02:43:10.107Z,97857.29
2018-08-10T02:43:41.731Z,97862.03
2018-08-10T02:44:13.339Z,97859.97
2018-08-10T02:44:44.947Z,97865.55
2018-08-10T02:45:16.545Z,97858.78
2018-08-10T02:45:48.135Z,97870.33
2018-08-10T02:46:19.718Z,97866.50
2018-08-10T02:46:51.321Z,97865.63
2018-08-10T02:47:22.906Z,97866.60
2018-08-10T02:47:54.532Z,97870.05
2018-08-10T02:48:26.115Z,97870.11
2018-08-10T02:48:57.704Z,97870.16
2018-08-10T02:49:29.291Z,97869.79
2018-08-10T02:50:00.875Z,97875.32
2018-08-10T02:50:32.463Z,97868.88
2018-08-10T02:51:04.071Z,97873.48
2018-08-10T02:51:35.647Z,97877.42
2018-08-10T02:52:07.245Z,97876.06
2018-08-10T02:52:38.845Z,97878.16
2018-08-10T02:53:10.509Z,97881.19
2018-08-10T02:53:42.112Z,97881.63
2018-08-10T02:54:13.707Z,97877.41
2018-08-10T02:54:45.301Z,97879.59
2018-08-10T02:55:16.899Z,97880.94
2018-08-10T02:55:48.503Z,97879.11
2018-08-10T02:56:20.091Z,97883.77
2018-08-10T02:56:51.686Z,97881.73
2018-08-10T02:57:23.276Z,97867.09
2018-08-10T02:57:54.870Z,97890.86
2018-08-10T02:58:26.504Z,97887.22
2018-08-10T02:58:58.107Z,97889.87
2018-08-10T02:59:29.705Z,97880.66
2018-08-10T03:00:01.307Z,97885.97
2018-08-10T03:00:32.899Z,97889.90
2018-08-10T03:01:04.509Z,97890.78
2018-08-10T03:01:36.109Z,97889.63
2018-08-10T03:02:07.691Z,97891.50
2018-08-10T03:02:39.290Z,97888.19
2018-08-10T03:03:10.872Z,97890.39
2018-08-10T03:03:42.517Z,97886.59
2018-08-10T03:04:14.118Z,97899.36
2018-08-10T03:04:45.725Z,97890.80
2018-08-10T03:05:17.299Z,97892.53
2018-08-10T03:05:48.918Z,97901.62
2018-08-10T03:06:20.503Z,97894.88
2018-08-10T03:06:52.097Z,97894.53
2018-08-10T03:07:23.685Z,97898.09
2018-08-10T03:07:55.275Z,97894.19
2018-08-10T03:08:26.860Z,97895.82
2018-08-10T03:08:58.498Z,97895.33
2018-08-10T03:09:30.097Z,97897.43
2018-08-10T03:10:01.732Z,97902.49
2018-08-10T03:10:33.320Z,97900.94
2018-08-10T03:11:04.907Z,97898.09
2018-08-10T03:11:36.491Z,97907.58
2018-08-10T03:12:08.086Z,97909.31
2018-08-10T03:12:39.661Z,97906.30
2018-08-10T03:13:11.248Z,97905.87
2018-08-10T03:13:42.831Z,97910.17
2018-08-10T03:14:14.415Z,97906.36
2018-08-10T03:14:46.023Z,97906.88
2018-08-10T03:15:17.676Z,97905.91
2018-08-10T03:15:49.249Z,97908.89
2018-08-10T03:16:20.831Z,97910.22
2018-08-10T03:16:52.401Z,97906.53
2018-08-10T03:17:23.996Z,97916.73
2018-08-10T03:17:55.598Z,97912.09
2018-08-10T03:18:27.187Z,97909.98
2018-08-10T03:18:58.773Z,97910.81
2018-08-10T03:19:30.346Z,97912.52
2018-08-10T03:20:01.934Z,97913.80
2018-08-10T03:20:33.563Z,97916.81
2018-08-10T03:21:05.166Z,97915.55
2018-08-10T03:21:36.754Z,97914.76
2018-08-10T03:22:08.435Z,97913.48
2018-08-10T03:22:39.971Z,97917.59
2018-08-10T03:23:11.560Z,97919.20
2018-08-10T03:23:43.148Z,97914.88
2018-08-10T03:24:15.467Z,97918.53
2018-08-10T03:24:47.061Z,97920.70
2018-08-10T03:25:18.651Z,97915.19
2018-08-10T03:25:50.236Z,97918.65
2018-08-10T03:26:21.809Z,97915.66
2018-08-10T03:26:53.443Z,97921.73
2018-08-10T03:27:25.036Z,97919.61
2018-08-10T03:27:56.624Z,97918.42
2018-08-10T03:28:28.207Z,97918.08
2018-08-10T03:28:59.796Z,97919.80
2018-08-10T03:29:31.379Z,97920.36
2018-08-10T03:30:02.955Z,97922.94
2018-08-10T03:30:34.544Z,97913.94
2018-08-10T03:31:06.131Z,97907.91
2018-08-10T03:31:37.706Z,97914.28
2018-08-10T03:32:09.342Z,97915.51
2018-08-10T03:32:40.931Z,97917.14
2018-08-10T03:33:12.515Z,97912.94
2018-08-10T03:33:44.110Z,97912.58
2018-08-10T03:34:16.308Z,97912.98
2018-08-10T03:34:47.910Z,97915.08
2018-08-10T03:35:19.492Z,97924.94
2018-08-10T03:35:51.106Z,97916.05
2018-08-10T03:36:22.691Z,97917.72
2018-08-10T03:36:54.279Z,97917.38
2018-08-10T03:37:25.864Z,97917.91
2018-08-10T03:37:57.492Z,97915.64
2018-08-10T03:38:29.093Z,97921.63
2018-08-10T03:39:00.678Z,97922.47
2018-08-10T03:39:32.269Z,97916.44
2018-08-10T03:40:03.855Z,97918.98
2018-08-10T03:40:35.430Z,97930.42
2018-08-10T03:41:07.029Z,97935.27
2018-08-10T03:41:38.619Z,97936.99
2018-08-10T03:42:10.213Z,97939.17
2018-08-10T03:42:41.843Z,97939.08
2018-08-10T03:43:13.431Z,97943.80
2018-08-10T03:43:45.030Z,97949.30
2018-08-10T03:44:16.631Z,97944.63
2018-08-10T03:44:48.220Z,97950.22
2018-08-10T03:45:19.797Z,97951.52
2018-08-10T03:45:51.383Z,97953.63
2018-08-10T03:46:22.967Z,97946.78
2018-08-10T03:46:54.561Z,97946.36
2018-08-10T03:47:26.192Z,97946.80
2018-08-10T03:47:57.789Z,97945.94
2018-08-10T03:48:29.385Z,97942.52
2018-08-10T03:49:01.037Z,97945.94
2018-08-10T03:49:32.643Z,97948.11
2018-08-10T03:50:04.255Z,97943.16
2018-08-10T03:50:35.839Z,97946.48
2018-08-10T03:51:07.437Z,97945.20
2018-08-10T03:51:39.033Z,97947.69
2018-08-10T03:52:10.634Z,97945.96
2018-08-10T03:52:42.268Z,97947.65
2018-08-10T03:53:13.861Z,97945.87
2018-08-10T03:53:45.451Z,97944.98
2018-08-10T03:54:17.037Z,97947.06
2018-08-10T03:54:48.623Z,97948.39
2018-08-10T03:55:20.233Z,97954.49
2018-08-10T03:55:51.855Z,97943.84
2018-08-10T03:56:23.449Z,97944.12
2018-08-10T03:56:55.045Z,97950.31
2018-08-10T03:57:26.631Z,97957.06
2018-08-10T03:57:58.215Z,97956.98
2018-08-10T03:58:29.800Z,97953.95
2018-08-10T03:59:01.403Z,97960.80
2018-08-10T03:59:33.043Z,97965.12
2018-08-10T04:00:04.614Z,97964.23
2018-08-10T04:00:36.210Z,97966.33
2018-08-10T04:01:07.812Z,97960.84
2018-08-10T04:01:39.400Z,97963.06
2018-08-10T04:02:10.995Z,97963.91
2018-08-10T04:02:42.590Z,97966.42
2018-08-10T04:03:14.179Z,97965.56
2018-08-10T04:03:45.763Z,97963.06
2018-08-10T04:04:17.350Z,97963.93
2018-08-10T04:04:48.975Z,97963.97
2018-08-10T04:05:20.560Z,97962.78
2018-08-10T04:05:52.161Z,97961.57
2018-08-10T04:06:23.765Z,97956.45
2018-08-10T04:06:55.341Z,97960.70
2018-08-10T04:07:26.927Z,97959.84
2018-08-10T04:07:58.514Z,97964.58
2018-08-10T04:08:30.099Z,97960.28
2018-08-10T04:09:01.692Z,97961.17
2018-08-10T04:09:33.293Z,97962.73
2018-08-10T04:10:04.924Z,97963.44
2018-08-10T04:10:36.511Z,97965.09
2018-08-10T04:11:08.081Z,97959.44
2018-08-10T04:11:39.682Z,97962.02
2018-08-10T04:12:11.267Z,97965.23
2018-08-10T04:12:42.863Z,97961.36
2018-08-10T04:13:14.447Z,97961.45
2018-08-10T04:13:46.033Z,97965.20
2018-08-10T04:14:17.613Z,97963.93
2018-08-10T04:14:49.247Z,97964.35
2018-08-10T04:15:20.824Z,97963.58
2018-08-10T04:15:52.425Z,97959.75
2018-08-10T04:16:24.011Z,97970.94
2018-08-10T04:16:55.595Z,97974.53
2018-08-10T04:17:27.183Z,97969.91
2018-08-10T04:17:58.785Z,97971.30
2018-08-10T04:18:30.375Z,97980.19
2018-08-10T04:19:01.970Z,97970.34
2018-08-10T04:19:33.555Z,97976.43
2018-08-10T04:20:05.279Z,97976.70
2018-08-10T04:20:36.850Z,97974.95
2018-08-10T04:21:08.454Z,97983.41
2018-08-10T04:21:40.057Z,97985.12
2018-08-10T04:22:11.653Z,97988.44
2018-08-10T04:22:43.243Z,97988.16
2018-08-10T04:23:14.826Z,97985.16
2018-08-10T04:23:46.412Z,97985.89
2018-08-10T04:24:17.999Z,97997.77
2018-08-10T04:24:49.598Z,97992.93
2018-08-10T04:25:21.240Z,97995.00
2018-08-10T04:25:52.846Z,97996.25
2018-08-10T04:26:24.441Z,98002.16
2018-08-10T04:26:56.031Z,97994.81
2018-08-10T04:27:27.637Z,97997.36
2018-08-10T04:27:59.223Z,97996.62
2018-08-10T04:28:30.807Z,97999.38
2018-08-10T04:29:02.457Z,98000.89
2018-08-10T04:29:34.096Z,98001.75
2018-08-10T04:30:05.672Z,97998.39
2018-08-10T04:30:37.274Z,98006.88
2018-08-10T04:31:08.850Z,98002.52
2018-08-10T04:31:40.450Z,97998.13
2018-08-10T04:32:12.049Z,97996.48
2018-08-10T04:32:43.649Z,98002.20
2018-08-10T04:33:15.239Z,97997.48
2018-08-10T04:33:46.827Z,98000.97
2018-08-10T04:34:18.449Z,98003.55
2018-08-10T04:34:50.024Z,98001.41
2018-08-10T04:35:21.593Z,98005.38
2018-08-10T04:35:53.179Z,98004.55
2018-08-10T04:36:24.773Z,98011.69
2018-08-10T04:36:56.373Z,98003.48
2018-08-10T04:37:27.958Z,98003.91
2018-08-10T04:37:59.573Z,98011.73
2018-08-10T04:38:31.213Z,98011.36
2018-08-10T04:39:02.771Z,98015.58
2018-08-10T04:39:34.355Z,98016.84
2018-08-10T04:40:05.954Z,98018.55
2018-08-10T04:40:37.553Z,98019.73
2018-08-10T04:41:09.190Z,98024.42
2018-08-10T04:41:40.843Z,98026.69
2018-08-10T04:42:12.443Z,98024.25
2018-08-10T04:42:44.035Z,98028.20
2018-08-10T04:43:15.635Z,98030.77
2018-08-10T04:43:47.234Z,98027.87
2018-08-10T04:44:18.823Z,98034.53
2018-08-10T04:44:50.407Z,98027.23
2018-08-10T04:45:22.030Z,98026.93
2018-08-10T04:45:53.598Z,98020.98
2018-08-10T04:46:25.206Z,98026.93
2018-08-10T04:46:56.795Z,98021.79
2018-08-10T04:47:28.380Z,98021.86
2018-08-10T04:47:59.973Z,98024.50
2018-08-10T04:48:31.600Z,98024.95
2018-08-10T04:49:03.190Z,98016.86
2018-08-10T04:49:34.776Z,98020.65
2018-08-10T04:50:06.364Z,98021.44
2018-08-10T04:50:37.933Z,98023.44
2018-08-10T04:51:09.519Z,98024.30
2018-08-10T04:51:41.140Z,98014.50
2018-08-10T04:52:12.772Z,98020.77
2018-08-10T04:52:44.343Z,98018.20
2018-08-10T04:53:15.977Z,98016.50
2018-08-10T04:53:47.582Z,98025.91
2018-08-10T04:54:19.178Z,98021.64
2018-08-10T04:54:50.777Z,98024.65
2018-08-10T04:55:22.460Z,98028.83
2018-08-10T04:55:54.030Z,98023.97
2018-08-10T04:56:25.622Z,98026.16
2018-08-10T04:56:57.212Z,98033.94
2018-08-10T04:57:28.800Z,98036.09
2018-08-10T04:58:00.405Z,98033.84
2018-08-10T04:58:31.995Z,98032.58
2018-08-10T04:59:03.584Z,98039.19
2018-08-10T04:59:35.171Z,98038.27
2018-08-10T05:00:06.755Z,98037.90
2018-08-10T05:00:38.393Z,98043.94
2018-08-10T05:01:09.985Z,98039.76
2018-08-10T05:01:41.572Z,98038.11
2018-08-10T05:02:13.156Z,98041.11
2018-08-10T05:02:44.738Z,98032.98
2018-08-10T05:03:16.352Z,98033.89
2018-08-10T05:03:48.087Z,98044.64
2018-08-10T05:04:19.558Z,98038.67
2018-08-10T05:04:51.144Z,98049.36
2018-08-10T05:05:22.733Z,98046.78
2018-08-10T05:05:54.333Z,98047.20
2018-08-10T05:06:25.924Z,98049.89
2018-08-10T05:06:57.577Z,98052.45
2018-08-10T05:07:29.174Z,98055.98
2018-08-10T05:08:00.767Z,98058.86
2018-08-10T05:08:32.363Z,98060.56
2018-08-10T05:09:03.978Z,98064.08
2018-08-10T05:09:35.573Z,98058.64
2018-08-10T05:10:07.170Z,98056.69
2018-08-10T05:10:38.764Z,98056.47
2018-08-10T05:11:10.347Z,98058.41
2018-08-10T05:11:41.932Z,98056.61
2018-08-10T05:12:13.576Z,98056.15
2018-08-10T05:12:45.173Z,98058.99
2018-08-10T05:13:16.774Z,98058.97
2018-08-10T05:13:48.374Z,98064.30
2018-08-10T05:14:19.965Z,98061.15
2018-08-10T05:14:51.538Z,98060.14
2018-08-10T05:15:23.110Z,98064.67
2018-08-10T05:15:54.707Z,98064.16
2018-08-10T05:16:26.290Z,98069.89
2018-08-10T05:16:57.885Z,98072.13
2018-08-10T05:17:29.525Z,98068.97
2018-08-10T05:18:01.113Z,98069.52
2018-08-10T05:18:32.709Z,98074.90
2018-08-10T05:19:04.305Z,98065.16
2018-08-10T05:19:35.894Z,98064.31
2018-08-10T05:20:07.479Z,98067.18
2018-08-10T05:20:39.077Z,98063.66
2018-08-10T05:21:10.734Z,98078.81
2018-08-10T05:21:42.328Z,98069.49
2018-08-10T05:22:13.898Z,98073.86
2018-08-10T05:22:45.488Z,98076.89
2018-08-10T05:23:17.075Z,98077.41
2018-08-10T05:23:48.659Z,98073.97
2018-08-10T05:24:20.260Z,98076.55
2018-08-10T05:24:51.848Z,98077.42
2018-08-10T05:25:23.442Z,98082.58
2018-08-10T05:25:55.039Z,98083.14
2018-08-10T05:26:26.627Z,98079.38
2018-08-10T05:26:58.228Z,98083.22
2018-08-10T05:27:29.818Z,98080.11
2018-08-10T05:28:01.415Z,98086.48
2018-08-10T05:28:33.016Z,98085.57
2018-08-10T05:29:04.590Z,98081.30
2018-08-10T05:29:36.165Z,98087.77
2018-08-10T05:30:07.752Z,98083.44
2018-08-10T05:30:39.353Z,98085.98
2018-08-10T05:31:10.933Z,98090.25
2018-08-10T05:31:42.563Z,98086.98
2018-08-10T05:32:14.151Z,98080.55
2018-08-10T05:32:45.735Z,98083.48
2018-08-10T05:33:17.373Z,98083.08
2018-08-10T05:33:48.960Z,98088.19
2018-08-10T05:34:20.543Z,98087.72
2018-08-10T05:34:52.215Z,98089.91
2018-08-10T05:35:23.743Z,98093.31
2018-08-10T05:35:55.328Z,98091.62
2018-08-10T05:36:26.927Z,98093.33
2018-08-10T05:36:58.526Z,98097.61
2018-08-10T05:37:30.130Z,98099.41
2018-08-10T05:38:01.756Z,98095.56
2018-08-10T05:38:33.338Z,98099.06
2018-08-10T05:39:04.938Z,98099.02
2018-08-10T05:39:36.538Z,98101.97
2018-08-10T05:40:08.179Z,98098.09
2018-08-10T05:40:39.793Z,98095.92
2018-08-10T05:41:11.388Z,98093.75
2018-08-10T05:41:42.985Z,98096.28
2018-08-10T05:42:14.561Z,98092.86
2018-08-10T05:42:46.147Z,98092.05
2018-08-10T05:43:17.731Z,98091.55
2018-08-10T05:43:49.330Z,98097.52
2018-08-10T05:44:20.930Z,98089.90
2018-08-10T05:44:52.527Z,98092.96
2018-08-10T05:45:24.155Z,98093.00
2018-08-10T05:45:55.739Z,98092.16
2018-08-10T05:46:27.422Z,98088.28
2018-08-10T05:46:59.027Z,98096.43
2018-08-10T05:47:30.601Z,98094.19
2018-08-10T05:48:02.263Z,98099.31
2018-08-10T05:48:33.801Z,98106.95
2018-08-10T05:49:05.391Z,98099.66
2018-08-10T05:49:36.979Z,98101.39
2018-08-10T05:50:08.581Z,98082.05
2018-08-10T05:50:40.226Z,98097.95
2018-08-10T05:51:11.805Z,98099.22
2018-08-10T05:51:43.404Z,98099.23
2018-08-10T05:52:14.991Z,98098.80
2018-08-10T05:52:46.609Z,98105.16
2018-08-10T05:53:18.196Z,98098.70
2018-08-10T05:53:49.799Z,98105.50
2018-08-10T05:54:21.422Z,98104.19
2018-08-10T05:54:53.092Z,98105.78
2018-08-10T05:55:24.698Z,98101.08
2018-08-10T05:55:56.288Z,98102.73
2018-08-10T05:56:27.871Z,98096.73
2018-08-10T05:56:59.500Z,98098.94
2018-08-10T05:57:31.127Z,98104.94
2018-08-10T05:58:02.703Z,98103.67
2018-08-10T05:58:34.289Z,98103.95
2018-08-10T05:59:05.881Z,98105.81
2018-08-10T05:59:37.519Z,98107.57
2018-08-10T06:00:09.113Z,98093.70
2018-08-10T06:00:40.789Z,98108.43
2018-08-10T06:01:12.318Z,98110.54
2018-08-10T06:01:43.908Z,98111.06
2018-08-10T06:02:15.509Z,98117.05
2018-08-10T06:02:47.103Z,98120.91
2018-08-10T06:03:18.709Z,98112.36
2018-08-10T06:03:50.324Z,98118.70
2018-08-10T06:04:21.919Z,98125.95
2018-08-10T06:04:53.551Z,98127.22
2018-08-10T06:05:25.136Z,98128.11
2018-08-10T06:05:56.724Z,98123.07
2018-08-10T06:06:28.321Z,98139.79
2018-08-10T06:06:59.893Z,98141.05
2018-08-10T06:07:31.491Z,98142.52
2018-08-10T06:08:03.093Z,98142.11
2018-08-10T06:08:34.683Z,98139.88
2018-08-10T06:09:06.267Z,98144.13
2018-08-10T06:09:37.851Z,98145.40
2018-08-10T06:10:09.494Z,98150.83
2018-08-10T06:10:41.102Z,98149.86
2018-08-10T06:11:12.737Z,98153.34